Time;durP1;ratioP1;P1;durP2;ratioP2;P2;SDS_P1;SDS_P2;PMS_P1;PMS_P2;Temp;Humidity;BMP_temperature;BMP_pressure;BME280_temperature;BME280_humidity;BME280_pressure;Samples;Min_cycle;Max_cycle;Signal;HPM_P1;HPM_P2
2021/12/30 00:00:13;;;;;;;32.00;3.38;;;;;;;;;;4940888;28;20034;-82
2021/12/30 00:02:39;;;;;;;19.35;3.55;;;;;;;;;;4955627;28;20095;-81
2021/12/30 00:05:05;;;;;;;33.92;3.75;;;;;;;;;;4936578;28;20542;-81
2021/12/30 00:07:31;;;;;;;19.40;3.08;;;;;;;;;;4946241;28;20066;-81
2021/12/30 00:09:58;;;;;;;28.40;4.15;;;;;;;;;;4941254;28;20039;-81
2021/12/30 00:12:24;;;;;;;16.35;3.03;;;;;;;;;;4962411;28;20035;-81
2021/12/30 00:14:50;;;;;;;30.17;4.85;;;;;;;;;;4942084;28;20031;-81
2021/12/30 00:17:16;;;;;;;27.85;4.07;;;;;;;;;;4944164;28;20078;-82
2021/12/30 00:19:42;;;;;;;43.72;4.60;;;;;;;;;;4942525;28;20483;-82
2021/12/30 00:22:09;;;;;;;29.25;4.13;;;;;;;;;;4936723;28;20484;-82
2021/12/30 00:24:35;;;;;;;34.60;3.42;;;;;;;;;;4962129;28;20352;-81
2021/12/30 00:27:01;;;;;;;29.83;5.47;;;;;;;;;;4951530;28;20051;-82
2021/12/30 00:29:27;;;;;;;41.63;5.03;;;;;;;;;;4943153;28;20059;-82
2021/12/30 00:31:53;;;;;;;30.17;3.83;;;;;;;;;;4957441;28;20023;-81
2021/12/30 00:34:19;;;;;;;43.95;4.97;;;;;;;;;;4944737;28;20035;-81
2021/12/30 00:36:45;;;;;;;32.97;5.10;;;;;;;;;;4943880;28;20045;-81
2021/12/30 00:39:11;;;;;;;30.88;4.47;;;;;;;;;;4943744;28;20543;-82
2021/12/30 00:41:38;;;;;;;45.00;5.35;;;;;;;;;;4957566;28;20047;-81
2021/12/30 00:44:04;;;;;;;37.97;4.70;;;;;;;;;;4943540;28;20247;-82
2021/12/30 00:46:30;;;;;;;36.55;4.07;;;;;;;;;;4947259;28;20132;-81
2021/12/30 00:48:56;;;;;;;29.92;4.53;;;;;;;;;;4956668;28;20036;-82
2021/12/30 00:51:22;;;;;;;48.83;5.75;;;;;;;;;;4940966;28;20039;-81
2021/12/30 00:53:48;;;;;;;38.72;5.35;;;;;;;;;;4946522;28;20139;-82
2021/12/30 00:56:14;;;;;;;36.40;6.10;;;;;;;;;;4945466;28;20493;-81
2021/12/30 00:58:40;;;;;;;48.85;6.35;;;;;;;;;;4941027;28;20129;-81
2021/12/30 01:01:06;;;;;;;47.38;6.95;;;;;;;;;;4943840;28;20134;-81
2021/12/30 01:03:34;;;;;;;42.75;5.47;;;;;;;;;;4944707;28;20130;-82
2021/12/30 01:06:00;;;;;;;44.17;6.65;;;;;;;;;;4944746;28;20510;-82
2021/12/30 01:08:26;;;;;;;44.55;5.93;;;;;;;;;;4943824;28;20077;-82
2021/12/30 01:10:52;;;;;;;50.05;5.78;;;;;;;;;;4939127;28;20051;-81
2021/12/30 01:13:24;;;;;;;57.60;7.38;;;;;;;;;;4935475;28;20043;-82
2021/12/30 01:16:02;;;;;;;49.55;5.00;;;;;;;;;;4943535;28;20035;-81
2021/12/30 01:21:01;;;;;;;55.88;6.53;;;;;;;;;;4958477;28;20035;-81
2021/12/30 01:23:27;;;;;;;41.90;5.65;;;;;;;;;;4947404;28;20426;-81
2021/12/30 01:25:55;;;;;;;59.90;8.13;;;;;;;;;;4940905;28;20438;-81
2021/12/30 01:28:21;;;;;;;58.45;6.53;;;;;;;;;;4956357;28;20387;-82
2021/12/30 01:30:48;;;;;;;51.38;6.97;;;;;;;;;;4945612;28;20035;-82
2021/12/30 01:33:15;;;;;;;42.90;6.85;;;;;;;;;;4942790;28;20034;-82
2021/12/30 01:35:41;;;;;;;48.20;6.38;;;;;;;;;;4945268;28;20023;-81
2021/12/30 01:38:11;;;;;;;50.97;6.10;;;;;;;;;;4939910;28;20027;-82
2021/12/30 01:40:38;;;;;;;14.98;2.28;;;;;;;;;;4942095;28;20027;-82
2021/12/30 01:43:05;;;;;;;56.17;5.90;;;;;;;;;;4933859;28;20034;-82
2021/12/30 01:45:31;;;;;;;53.17;6.55;;;;;;;;;;4947734;28;20214;-81
2021/12/30 01:47:58;;;;;;;43.88;5.53;;;;;;;;;;4960145;28;20419;-81
2021/12/30 01:50:26;;;;;;;48.80;6.03;;;;;;;;;;4948507;28;20771;-82
2021/12/30 01:52:53;;;;;;;35.90;6.03;;;;;;;;;;4941028;28;20070;-81
2021/12/30 01:55:20;;;;;;;47.58;5.35;;;;;;;;;;4961921;28;20513;-82
2021/12/30 01:57:47;;;;;;;52.67;7.15;;;;;;;;;;4957537;28;20431;-81
2021/12/30 02:00:14;;;;;;;39.75;4.93;;;;;;;;;;4972267;28;20494;-81
2021/12/30 02:02:41;;;;;;;67.10;6.97;;;;;;;;;;4965378;28;20557;-82
2021/12/30 02:05:07;;;;;;;36.13;6.07;;;;;;;;;;4958179;28;20124;-81
2021/12/30 02:07:33;;;;;;;45.72;6.35;;;;;;;;;;4966309;28;20232;-82
2021/12/30 02:10:01;;;;;;;55.20;6.85;;;;;;;;;;4959483;28;20038;-82
2021/12/30 02:12:35;;;;;;;44.22;6.40;;;;;;;;;;4960768;28;20474;-82
2021/12/30 02:15:01;;;;;;;43.65;6.22;;;;;;;;;;4965414;28;20474;-81
2021/12/30 02:17:27;;;;;;;55.92;7.57;;;;;;;;;;4961959;28;20034;-81
2021/12/30 02:20:00;;;;;;;46.67;5.78;;;;;;;;;;4961652;28;20100;-81
2021/12/30 02:22:26;;;;;;;36.20;4.85;;;;;;;;;;4948171;28;20034;-82
2021/12/30 02:24:52;;;;;;;50.33;7.53;;;;;;;;;;4965730;28;20026;-82
2021/12/30 02:27:19;;;;;;;35.15;5.05;;;;;;;;;;4975996;28;20030;-82
2021/12/30 02:29:45;;;;;;;50.85;7.60;;;;;;;;;;4964102;28;20456;-82
2021/12/30 02:32:11;;;;;;;42.95;5.20;;;;;;;;;;4960935;28;20042;-82
2021/12/30 02:34:38;;;;;;;57.50;6.78;;;;;;;;;;4958061;28;20483;-81
2021/12/30 02:37:05;;;;;;;40.42;5.30;;;;;;;;;;4962710;28;20436;-81
2021/12/30 02:39:31;;;;;;;29.48;4.47;;;;;;;;;;4961083;28;20492;-82
2021/12/30 02:41:57;;;;;;;52.25;7.30;;;;;;;;;;4962414;28;20046;-81
2021/12/30 02:44:23;;;;;;;45.13;7.40;;;;;;;;;;4961452;28;20034;-82
2021/12/30 02:46:53;;;;;;;31.67;5.20;;;;;;;;;;4962024;28;20041;-82
2021/12/30 02:49:20;;;;;;;31.20;4.45;;;;;;;;;;4964612;28;20028;-82
2021/12/30 02:51:46;;;;;;;50.35;6.63;;;;;;;;;;4963551;28;20033;-82
2021/12/30 02:54:12;;;;;;;46.17;4.65;;;;;;;;;;4960394;28;20038;-81
2021/12/30 02:56:39;;;;;;;60.28;6.38;;;;;;;;;;4965578;28;20373;-82
2021/12/30 02:59:05;;;;;;;38.70;4.85;;;;;;;;;;4959243;28;20550;-81
2021/12/30 03:01:32;;;;;;;44.72;6.13;;;;;;;;;;4980890;28;20474;-82
2021/12/30 03:04:01;;;;;;;46.20;6.18;;;;;;;;;;4962382;28;20144;-82
2021/12/30 03:06:28;;;;;;;40.97;7.05;;;;;;;;;;4961793;28;20037;-81
2021/12/30 03:08:56;;;;;;;47.00;5.38;;;;;;;;;;4963408;28;20048;-81
2021/12/30 03:11:23;;;;;;;29.90;4.00;;;;;;;;;;4962025;28;20071;-82
2021/12/30 03:13:49;;;;;;;43.92;6.40;;;;;;;;;;4976200;28;20034;-81
2021/12/30 03:16:17;;;;;;;27.88;3.25;;;;;;;;;;4961356;28;20026;-81
2021/12/30 03:18:44;;;;;;;38.97;6.00;;;;;;;;;;4961912;28;20470;-82
2021/12/30 03:21:11;;;;;;;39.83;7.28;;;;;;;;;;4963382;28;20030;-82
2021/12/30 03:23:38;;;;;;;45.83;7.53;;;;;;;;;;4960573;28;20037;-82
2021/12/30 03:26:05;;;;;;;30.55;4.72;;;;;;;;;;4960727;28;20038;-81
2021/12/30 03:28:31;;;;;;;63.40;8.13;;;;;;;;;;4962701;28;20738;-82
2021/12/30 03:30:58;;;;;;;29.08;4.05;;;;;;;;;;4963626;28;20053;-82
2021/12/30 03:33:28;;;;;;;47.95;8.70;;;;;;;;;;4977784;28;20029;-82
2021/12/30 03:35:55;;;;;;;52.28;8.20;;;;;;;;;;4962198;28;20033;-81
2021/12/30 03:38:21;;;;;;;48.25;7.93;;;;;;;;;;4957465;28;20033;-81
2021/12/30 03:40:47;;;;;;;55.45;9.25;;;;;;;;;;4963538;28;20031;-82
2021/12/30 03:43:13;;;;;;;47.15;7.50;;;;;;;;;;4974534;28;20399;-82
2021/12/30 03:45:39;;;;;;;44.53;7.35;;;;;;;;;;4967199;28;20042;-82
2021/12/30 03:48:05;;;;;;;52.22;8.75;;;;;;;;;;4977424;28;20074;-82
2021/12/30 03:50:31;;;;;;;41.67;6.50;;;;;;;;;;4966099;28;20038;-81
2021/12/30 03:52:58;;;;;;;89.40;10.82;;;;;;;;;;4966239;28;20579;-82
2021/12/30 03:55:25;;;;;;;48.47;9.20;;;;;;;;;;4968664;28;20559;-81
2021/12/30 03:57:52;;;;;;;55.55;7.53;;;;;;;;;;4949188;28;20317;-81
2021/12/30 04:00:19;;;;;;;44.03;6.47;;;;;;;;;;4938006;28;20047;-82
2021/12/30 04:02:45;;;;;;;45.67;9.93;;;;;;;;;;4947539;28;20372;-81
2021/12/30 04:05:11;;;;;;;52.50;8.57;;;;;;;;;;4944270;28;20070;-82
2021/12/30 04:07:38;;;;;;;62.10;9.27;;;;;;;;;;4948916;28;20436;-82
2021/12/30 04:10:05;;;;;;;75.20;11.95;;;;;;;;;;4960017;28;20406;-82
2021/12/30 04:12:31;;;;;;;55.22;9.82;;;;;;;;;;4945957;28;20031;-82
2021/12/30 04:14:57;;;;;;;67.32;15.38;;;;;;;;;;4949490;28;20037;-81
2021/12/30 04:17:23;;;;;;;31.80;8.93;;;;;;;;;;4948063;28;20022;-81
2021/12/30 04:19:50;;;;;;;64.47;10.82;;;;;;;;;;4960247;28;20113;-81
2021/12/30 04:22:18;;;;;;;55.78;10.68;;;;;;;;;;4944607;28;20411;-82
2021/12/30 04:24:48;;;;;;;60.28;9.80;;;;;;;;;;4948372;28;20349;-82
2021/12/30 04:27:14;;;;;;;59.20;9.52;;;;;;;;;;4943329;28;20074;-82
2021/12/30 04:29:40;;;;;;;48.30;7.20;;;;;;;;;;4962519;28;20285;-82
2021/12/30 04:32:07;;;;;;;54.97;8.23;;;;;;;;;;4956426;28;20369;-82
2021/12/30 04:34:33;;;;;;;65.75;8.90;;;;;;;;;;4941439;28;20050;-82
2021/12/30 04:36:59;;;;;;;47.80;7.78;;;;;;;;;;4960103;28;20038;-82
2021/12/30 04:39:26;;;;;;;43.42;6.95;;;;;;;;;;4941387;28;20037;-82
2021/12/30 04:41:52;;;;;;;35.38;5.75;;;;;;;;;;4942942;28;20039;-82
2021/12/30 04:44:18;;;;;;;64.88;7.22;;;;;;;;;;4943084;28;20022;-82
2021/12/30 04:46:43;;;;;;;46.13;7.45;;;;;;;;;;4948513;28;20059;-82
2021/12/30 04:49:10;;;;;;;56.22;9.25;;;;;;;;;;4944014;28;20031;-82
2021/12/30 04:51:36;;;;;;;81.20;9.07;;;;;;;;;;4945883;28;20127;-82
2021/12/30 04:54:14;;;;;;;61.67;8.35;;;;;;;;;;4949229;28;20129;-82
2021/12/30 04:56:41;;;;;;;46.35;7.63;;;;;;;;;;4976249;28;20023;-82
2021/12/30 04:59:07;;;;;;;19.30;5.32;;;;;;;;;;4968409;28;20031;-82
2021/12/30 05:01:34;;;;;;;55.17;7.97;;;;;;;;;;4960593;28;20446;-82
2021/12/30 05:04:00;;;;;;;62.80;9.98;;;;;;;;;;4966928;28;20594;-82
2021/12/30 05:06:26;;;;;;;48.53;6.22;;;;;;;;;;4960449;28;20046;-82
2021/12/30 05:08:52;;;;;;;62.00;10.48;;;;;;;;;;4978441;28;20077;-82
2021/12/30 05:11:18;;;;;;;73.07;10.13;;;;;;;;;;4965216;28;20041;-82
2021/12/30 05:13:44;;;;;;;80.78;10.43;;;;;;;;;;4962071;28;20027;-81
2021/12/30 05:16:10;;;;;;;39.03;6.40;;;;;;;;;;4960520;28;20023;-82
2021/12/30 05:18:37;;;;;;;73.82;11.85;;;;;;;;;;4969089;28;20477;-82
2021/12/30 05:21:05;;;;;;;77.50;11.27;;;;;;;;;;4966736;28;20474;-81
2021/12/30 05:23:32;;;;;;;56.28;11.75;;;;;;;;;;4962560;28;20038;-82
2021/12/30 05:25:58;;;;;;;81.78;12.75;;;;;;;;;;4964252;28;20038;-81
2021/12/30 05:28:24;;;;;;;71.03;11.73;;;;;;;;;;4958777;28;20573;-82
2021/12/30 05:30:50;;;;;;;85.07;14.95;;;;;;;;;;4969987;28;20038;-82
2021/12/30 05:33:17;;;;;;;67.43;11.95;;;;;;;;;;4977995;28;20486;-82
2021/12/30 05:35:43;;;;;;;47.67;8.18;;;;;;;;;;4959647;28;20034;-82
2021/12/30 05:38:09;;;;;;;65.22;13.20;;;;;;;;;;4959290;28;20491;-82
2021/12/30 05:40:35;;;;;;;64.07;13.73;;;;;;;;;;4970392;28;20497;-82
2021/12/30 05:43:02;;;;;;;29.05;6.80;;;;;;;;;;4962055;28;20029;-82
2021/12/30 05:45:28;;;;;;;60.47;13.13;;;;;;;;;;4965931;28;20041;-82
2021/12/30 05:47:54;;;;;;;65.22;12.27;;;;;;;;;;4961924;28;20545;-82
2021/12/30 05:50:22;;;;;;;73.57;14.75;;;;;;;;;;4958347;28;20081;-82
2021/12/30 05:52:48;;;;;;;61.97;12.93;;;;;;;;;;4958742;28;20391;-82
2021/12/30 05:55:15;;;;;;;78.43;15.75;;;;;;;;;;4947691;28;20051;-82
2021/12/30 05:57:41;;;;;;;64.93;13.40;;;;;;;;;;4962011;28;20026;-81
2021/12/30 06:00:09;;;;;;;54.83;13.57;;;;;;;;;;4939506;28;20061;-82
2021/12/30 06:02:35;;;;;;;40.95;9.52;;;;;;;;;;4945836;28;20126;-82
2021/12/30 06:05:02;;;;;;;67.97;12.20;;;;;;;;;;4945162;28;20043;-81
2021/12/30 06:07:28;;;;;;;63.20;12.38;;;;;;;;;;4941677;28;20340;-82
2021/12/30 06:09:54;;;;;;;44.65;10.35;;;;;;;;;;4944513;28;20533;-82
2021/12/30 06:12:20;;;;;;;44.03;9.45;;;;;;;;;;4936987;28;20828;-82
2021/12/30 06:14:47;;;;;;;10.10;4.72;;;;;;;;;;4944101;28;20046;-82
2021/12/30 06:17:15;;;;;;;36.40;10.10;;;;;;;;;;4945181;28;20034;-82
2021/12/30 06:19:42;;;;;;;39.67;10.48;;;;;;;;;;4942788;28;20038;-82
2021/12/30 06:22:09;;;;;;;43.10;9.52;;;;;;;;;;4944170;28;20302;-82
2021/12/30 06:24:39;;;;;;;38.50;9.65;;;;;;;;;;4962753;28;20556;-82
2021/12/30 06:27:05;;;;;;;37.08;10.55;;;;;;;;;;4938986;28;20475;-82
2021/12/30 06:29:31;;;;;;;32.47;8.48;;;;;;;;;;4941588;28;20113;-82
2021/12/30 06:31:57;;;;;;;37.58;9.73;;;;;;;;;;4959140;28;20084;-81
2021/12/30 06:34:26;;;;;;;43.40;9.30;;;;;;;;;;4943987;28;20387;-82
2021/12/30 06:36:52;;;;;;;37.45;9.23;;;;;;;;;;4957601;28;20123;-82
2021/12/30 06:39:19;;;;;;;40.33;11.32;;;;;;;;;;4938952;28;20474;-82
2021/12/30 06:41:45;;;;;;;27.17;6.95;;;;;;;;;;4943596;28;20042;-82
2021/12/30 06:44:11;;;;;;;39.33;10.45;;;;;;;;;;4955643;28;20038;-82
2021/12/30 06:46:37;;;;;;;41.45;10.13;;;;;;;;;;4944657;28;20387;-81
2021/12/30 06:49:08;;;;;;;23.77;6.70;;;;;;;;;;4946433;28;20479;-81
2021/12/30 06:51:35;;;;;;;57.40;12.90;;;;;;;;;;4960364;28;20050;-81
2021/12/30 06:54:02;;;;;;;11.48;3.50;;;;;;;;;;4941699;28;20127;-81
2021/12/30 06:56:28;;;;;;;49.10;13.00;;;;;;;;;;4944035;28;20042;-81
2021/12/30 06:58:54;;;;;;;55.95;13.32;;;;;;;;;;4939216;28;20054;-81
2021/12/30 07:01:20;;;;;;;55.45;13.55;;;;;;;;;;4956986;28;20023;-81
2021/12/30 07:03:46;;;;;;;47.88;10.80;;;;;;;;;;4947126;28;20046;-81
2021/12/30 07:06:13;;;;;;;61.67;13.43;;;;;;;;;;4954411;28;20027;-81
2021/12/30 07:08:39;;;;;;;40.90;10.63;;;;;;;;;;4937712;28;20031;-81
2021/12/30 07:11:05;;;;;;;18.23;6.32;;;;;;;;;;4939250;28;20027;-80
2021/12/30 07:13:31;;;;;;;54.03;11.35;;;;;;;;;;4941303;28;20106;-81
2021/12/30 07:15:57;;;;;;;54.78;11.75;;;;;;;;;;4939272;28;20043;-81
2021/12/30 07:18:23;;;;;;;41.40;10.23;;;;;;;;;;4943074;28;20027;-81
2021/12/30 07:20:49;;;;;;;45.20;10.05;;;;;;;;;;4942249;28;20406;-81
2021/12/30 07:23:15;;;;;;;58.72;11.02;;;;;;;;;;4961010;28;20031;-81
2021/12/30 07:25:42;;;;;;;44.80;10.73;;;;;;;;;;4945356;28;20031;-81
2021/12/30 07:28:08;;;;;;;37.67;10.05;;;;;;;;;;4946359;28;20023;-81
2021/12/30 07:30:34;;;;;;;37.35;9.70;;;;;;;;;;4963743;28;20031;-81
2021/12/30 07:33:01;;;;;;;32.67;9.75;;;;;;;;;;4944044;28;20106;-80
2021/12/30 07:35:28;;;;;;;18.65;5.57;;;;;;;;;;4950509;28;20058;-81
2021/12/30 07:37:54;;;;;;;14.88;5.13;;;;;;;;;;4943180;28;20442;-81
2021/12/30 07:40:23;;;;;;;31.38;8.30;;;;;;;;;;4962892;28;20031;-80
2021/12/30 07:42:53;;;;;;;19.70;5.30;;;;;;;;;;4944971;28;20035;-80
2021/12/30 07:45:19;;;;;;;24.92;6.95;;;;;;;;;;4962581;28;20031;-81
2021/12/30 07:47:46;;;;;;;30.05;7.72;;;;;;;;;;4947482;28;20121;-81
2021/12/30 07:50:13;;;;;;;31.25;6.97;;;;;;;;;;4942337;28;20505;-81
2021/12/30 07:52:39;;;;;;;24.48;6.20;;;;;;;;;;4962929;28;20589;-81
2021/12/30 07:55:19;;;;;;;18.40;6.13;;;;;;;;;;4959681;28;20065;-81
2021/12/30 07:57:45;;;;;;;25.98;7.20;;;;;;;;;;4965380;28;20223;-80
2021/12/30 08:00:13;;;;;;;18.60;4.97;;;;;;;;;;4959419;28;20034;-81
2021/12/30 08:02:42;;;;;;;23.50;7.38;;;;;;;;;;4981439;28;20041;-81
2021/12/30 08:05:08;;;;;;;6.90;2.28;;;;;;;;;;4977354;28;20046;-81
2021/12/30 08:07:34;;;;;;;19.05;6.47;;;;;;;;;;4966890;28;20081;-81
2021/12/30 08:10:00;;;;;;;19.70;6.43;;;;;;;;;;4972872;28;20033;-81
2021/12/30 08:12:26;;;;;;;13.45;3.60;;;;;;;;;;4961900;28;20317;-81
2021/12/30 08:14:52;;;;;;;3.08;1.65;;;;;;;;;;4963485;28;20034;-81
2021/12/30 08:17:18;;;;;;;11.23;3.53;;;;;;;;;;4963327;28;20494;-81
2021/12/30 08:19:44;;;;;;;1.95;1.33;;;;;;;;;;4961998;28;20058;-81
2021/12/30 08:22:10;;;;;;;8.57;3.15;;;;;;;;;;4959848;28;20502;-81
2021/12/30 08:24:37;;;;;;;7.22;2.67;;;;;;;;;;4959611;28;20125;-81
2021/12/30 08:27:03;;;;;;;5.63;2.50;;;;;;;;;;4964024;28;20106;-81
2021/12/30 08:29:31;;;;;;;5.68;2.33;;;;;;;;;;4966484;28;20030;-81
2021/12/30 08:31:57;;;;;;;2.15;1.23;;;;;;;;;;4965046;28;20402;-81
2021/12/30 08:34:24;;;;;;;6.90;3.17;;;;;;;;;;4979512;28;20030;-81
2021/12/30 08:36:50;;;;;;;4.93;2.47;;;;;;;;;;4981053;28;20026;-81
2021/12/30 08:39:16;;;;;;;6.70;2.00;;;;;;;;;;4979780;28;20054;-81
2021/12/30 08:41:42;;;;;;;4.10;1.90;;;;;;;;;;4964184;28;20042;-81
2021/12/30 08:44:08;;;;;;;5.47;1.27;;;;;;;;;;4964040;28;20034;-81
2021/12/30 08:46:34;;;;;;;3.25;1.20;;;;;;;;;;4969480;28;20026;-81
2021/12/30 08:49:00;;;;;;;11.82;2.25;;;;;;;;;;4963858;28;20055;-81
2021/12/30 08:51:26;;;;;;;4.10;1.55;;;;;;;;;;4966546;28;20037;-81
2021/12/30 08:53:52;;;;;;;14.05;3.60;;;;;;;;;;4967509;28;20243;-81
2021/12/30 08:56:18;;;;;;;11.25;3.88;;;;;;;;;;4965474;28;20039;-81
2021/12/30 08:58:44;;;;;;;4.63;2.45;;;;;;;;;;4961827;28;20031;-81
2021/12/30 09:01:11;;;;;;;7.35;3.20;;;;;;;;;;4963952;28;20464;-81
2021/12/30 09:03:37;;;;;;;16.33;4.53;;;;;;;;;;4966411;28;20121;-82
2021/12/30 09:06:05;;;;;;;9.25;2.95;;;;;;;;;;4964073;28;20031;-81
2021/12/30 09:08:32;;;;;;;10.60;3.70;;;;;;;;;;4965795;28;20034;-81
2021/12/30 09:10:58;;;;;;;2.72;1.38;;;;;;;;;;4973751;28;20042;-81
2021/12/30 09:13:24;;;;;;;13.63;3.83;;;;;;;;;;4965365;28;20041;-81
2021/12/30 09:15:51;;;;;;;8.48;3.72;;;;;;;;;;4963442;28;20357;-81
2021/12/30 09:18:17;;;;;;;8.13;3.47;;;;;;;;;;4965187;28;20037;-82
2021/12/30 09:20:44;;;;;;;35.65;9.25;;;;;;;;;;4967249;28;20030;-81
2021/12/30 09:23:12;;;;;;;8.88;4.03;;;;;;;;;;4961575;28;20125;-81
2021/12/30 09:25:39;;;;;;;13.25;4.57;;;;;;;;;;4966326;28;20513;-81
2021/12/30 09:28:07;;;;;;;31.52;5.75;;;;;;;;;;4959750;28;20113;-81
2021/12/30 09:30:34;;;;;;;21.00;4.95;;;;;;;;;;4962590;28;20085;-81
2021/12/30 09:33:01;;;;;;;21.63;5.53;;;;;;;;;;4964396;28;20605;-81
2021/12/30 09:35:27;;;;;;;16.67;2.75;;;;;;;;;;4965902;28;20085;-81
2021/12/30 09:37:54;;;;;;;13.40;3.47;;;;;;;;;;4962205;28;20027;-81
2021/12/30 09:40:21;;;;;;;20.15;4.72;;;;;;;;;;4970794;28;20056;-82
2021/12/30 09:42:50;;;;;;;19.90;3.58;;;;;;;;;;4957826;28;20042;-81
2021/12/30 09:45:17;;;;;;;22.63;5.13;;;;;;;;;;4961384;28;20391;-82
2021/12/30 09:47:49;;;;;;;16.73;4.13;;;;;;;;;;4963229;28;20027;-82
2021/12/30 09:50:15;;;;;;;16.20;4.00;;;;;;;;;;4978895;28;20042;-81
2021/12/30 09:52:41;;;;;;;18.38;4.95;;;;;;;;;;4966535;28;20070;-81
2021/12/30 09:55:08;;;;;;;19.38;4.03;;;;;;;;;;4979795;28;20026;-82
2021/12/30 09:57:34;;;;;;;11.75;2.58;;;;;;;;;;4965034;28;20549;-81
2021/12/30 10:00:00;;;;;;;21.35;6.15;;;;;;;;;;4961495;28;20038;-81
2021/12/30 10:02:26;;;;;;;20.90;4.68;;;;;;;;;;4964107;28;20027;-81
2021/12/30 10:05:04;;;;;;;21.80;5.53;;;;;;;;;;4956582;28;20034;-81
2021/12/30 10:07:30;;;;;;;17.05;3.97;;;;;;;;;;4958977;28;20034;-81
2021/12/30 10:10:01;;;;;;;26.70;5.85;;;;;;;;;;4966394;28;20038;-81
2021/12/30 10:12:44;;;;;;;19.88;4.38;;;;;;;;;;4978588;28;20066;-81
2021/12/30 10:15:10;;;;;;;19.33;4.35;;;;;;;;;;4980573;28;20050;-81
2021/12/30 10:17:36;;;;;;;29.38;3.40;;;;;;;;;;4957419;28;20120;-81
2021/12/30 10:20:17;;;;;;;13.60;3.33;;;;;;;;;;4964677;28;20070;-81
2021/12/30 10:22:43;;;;;;;37.47;5.85;;;;;;;;;;4975249;28;20033;-82
2021/12/30 10:25:29;;;;;;;25.65;5.80;;;;;;;;;;4960769;28;20041;-81
2021/12/30 10:27:55;;;;;;;15.60;3.28;;;;;;;;;;4959877;28;20042;-80
2021/12/30 10:30:35;;;;;;;15.80;3.58;;;;;;;;;;4958654;28;20435;-81
2021/12/30 10:33:10;;;;;;;21.02;3.58;;;;;;;;;;4978108;28;20074;-81
2021/12/30 10:35:37;;;;;;;40.05;7.03;;;;;;;;;;4959860;28;20035;-81
2021/12/30 10:38:08;;;;;;;32.72;5.13;;;;;;;;;;4959967;28;20026;-81
2021/12/30 10:40:35;;;;;;;35.50;6.28;;;;;;;;;;4964596;28;20030;-80
2021/12/30 10:43:26;;;;;;;22.50;4.32;;;;;;;;;;4963277;28;20038;-80
2021/12/30 10:46:09;;;;;;;20.65;4.30;;;;;;;;;;4977596;28;20030;-80
2021/12/30 10:48:44;;;;;;;12.65;3.08;;;;;;;;;;4974477;28;20490;-80
2021/12/30 10:51:11;;;;;;;24.55;5.60;;;;;;;;;;4980244;28;20386;-80
2021/12/30 10:53:37;;;;;;;16.83;5.05;;;;;;;;;;4962968;28;20058;-81
2021/12/30 10:56:31;;;;;;;36.15;4.45;;;;;;;;;;4960373;28;20051;-80
2021/12/30 10:59:26;;;;;;;18.25;3.78;;;;;;;;;;4941364;28;20046;-80
2021/12/30 11:02:04;;;;;;;20.50;4.53;;;;;;;;;;4937251;28;20043;-81
2021/12/30 11:04:35;;;;;;;21.60;3.83;;;;;;;;;;4963410;28;20062;-80
2021/12/30 11:07:01;;;;;;;35.90;6.68;;;;;;;;;;4941015;28;20039;-80
2021/12/30 11:09:27;;;;;;;24.90;4.18;;;;;;;;;;4956195;28;20565;-80
2021/12/30 11:11:56;;;;;;;26.98;3.95;;;;;;;;;;4939767;28;20031;-80
2021/12/30 11:14:24;;;;;;;42.90;7.00;;;;;;;;;;4953997;28;20263;-80
2021/12/30 11:17:01;;;;;;;30.38;5.97;;;;;;;;;;4948311;28;20683;-80
2021/12/30 11:19:31;;;;;;;24.23;4.40;;;;;;;;;;4940984;28;20499;-81
2021/12/30 11:21:58;;;;;;;10.95;3.50;;;;;;;;;;4958194;28;20035;-80
2021/12/30 11:24:25;;;;;;;29.38;5.15;;;;;;;;;;4943926;28;20022;-80
2021/12/30 11:26:51;;;;;;;57.10;6.60;;;;;;;;;;4947893;28;20035;-81
2021/12/30 11:29:18;;;;;;;58.70;8.60;;;;;;;;;;4940298;28;20031;-81
2021/12/30 11:31:44;;;;;;;24.98;5.05;;;;;;;;;;4944922;28;20031;-81
2021/12/30 11:34:13;;;;;;;34.38;4.28;;;;;;;;;;4941449;28;20059;-81
2021/12/30 11:36:39;;;;;;;23.83;4.15;;;;;;;;;;4941625;28;20435;-81
2021/12/30 11:39:19;;;;;;;28.65;4.72;;;;;;;;;;4945686;28;20037;-81
2021/12/30 11:41:52;;;;;;;38.35;7.25;;;;;;;;;;4938707;28;20054;-81
2021/12/30 11:44:35;;;;;;;49.15;7.38;;;;;;;;;;4943533;28;20440;-81
2021/12/30 11:47:02;;;;;;;40.15;5.93;;;;;;;;;;4940691;28;20042;-81
2021/12/30 11:49:48;;;;;;;55.83;9.30;;;;;;;;;;4940505;28;20237;-82
2021/12/30 11:52:34;;;;;;;37.38;6.40;;;;;;;;;;4949326;28;20073;-81
2021/12/30 11:55:00;;;;;;;59.33;6.63;;;;;;;;;;4940650;28;20031;-81
2021/12/30 11:57:36;;;;;;;68.28;6.82;;;;;;;;;;4981901;28;20097;-81
2021/12/30 12:00:22;;;;;;;37.60;5.60;;;;;;;;;;4962127;28;20534;-81
2021/12/30 12:02:48;;;;;;;58.10;7.15;;;;;;;;;;4960641;28;20503;-81
2021/12/30 12:05:33;;;;;;;42.22;6.50;;;;;;;;;;4961186;28;20506;-82
2021/12/30 12:08:06;;;;;;;38.33;7.45;;;;;;;;;;4964256;28;20030;-81
2021/12/30 12:10:32;;;;;;;59.88;8.32;;;;;;;;;;4967063;28;20077;-81
2021/12/30 12:12:58;;;;;;;64.53;8.05;;;;;;;;;;4976788;28;20526;-81
2021/12/30 12:15:44;;;;;;;69.05;8.23;;;;;;;;;;4967725;28;20041;-81
2021/12/30 12:18:14;;;;;;;18.90;3.45;;;;;;;;;;4964695;28;20494;-82
2021/12/30 12:20:51;;;;;;;63.22;6.85;;;;;;;;;;4967213;28;20749;-81
2021/12/30 12:23:31;;;;;;;31.13;4.90;;;;;;;;;;4963774;28;20049;-81
2021/12/30 12:26:07;;;;;;;33.38;4.13;;;;;;;;;;4969101;28;20031;-82
2021/12/30 12:28:34;;;;;;;57.45;7.70;;;;;;;;;;4979696;28;20118;-81
2021/12/30 12:31:00;;;;;;;39.22;4.70;;;;;;;;;;4980898;28;20391;-81
2021/12/30 12:33:28;;;;;;;43.25;7.15;;;;;;;;;;4980943;28;20022;-81
2021/12/30 12:35:54;;;;;;;26.10;4.80;;;;;;;;;;4981666;28;20044;-82
2021/12/30 12:38:39;;;;;;;22.42;4.88;;;;;;;;;;4967858;28;20034;-81
2021/12/30 12:41:26;;;;;;;31.33;5.15;;;;;;;;;;4968795;28;20410;-82
2021/12/30 12:44:02;;;;;;;33.13;5.18;;;;;;;;;;4960628;28;20059;-82
2021/12/30 12:46:27;;;;;;;;;;;;;;;;;;4964986;28;20125;-82
2021/12/30 12:48:54;;;;;;;18.80;3.88;;;;;;;;;;4962261;28;20131;-82
2021/12/30 12:51:27;;;;;;;32.30;4.97;;;;;;;;;;4980407;28;20022;-82
2021/12/30 12:54:02;;;;;;;47.10;5.88;;;;;;;;;;4980707;28;20026;-82
2021/12/30 12:56:35;;;;;;;45.40;6.57;;;;;;;;;;4969094;28;20513;-82
2021/12/30 12:59:12;;;;;;;37.20;5.15;;;;;;;;;;4966031;28;20209;-82
2021/12/30 13:01:40;;;;;;;46.17;6.20;;;;;;;;;;4962109;28;20034;-81
2021/12/30 13:04:07;;;;;;;66.20;7.18;;;;;;;;;;4964200;28;20375;-81
2021/12/30 13:06:52;;;;;;;45.00;6.07;;;;;;;;;;4966853;28;20553;-82
2021/12/30 13:09:20;;;;;;;22.70;3.42;;;;;;;;;;4959633;28;20104;-82
2021/12/30 13:11:49;;;;;;;45.90;6.35;;;;;;;;;;4961011;28;20042;-82
2021/12/30 13:14:20;;;;;;;27.38;3.95;;;;;;;;;;4961043;28;20434;-82
2021/12/30 13:16:48;;;;;;;43.72;5.20;;;;;;;;;;4984176;28;20034;-81
2021/12/30 13:19:15;;;;;;;48.20;6.50;;;;;;;;;;4975404;28;21526;-82
2021/12/30 13:21:45;;;;;;;28.58;4.50;;;;;;;;;;4964339;28;20039;-82
2021/12/30 13:24:31;;;;;;;30.83;5.13;;;;;;;;;;4963160;28;20046;-82
2021/12/30 13:26:58;;;;;;;37.28;4.60;;;;;;;;;;4964920;28;20038;-82
2021/12/30 13:29:28;;;;;;;18.63;3.65;;;;;;;;;;4964435;28;20504;-81
2021/12/30 13:31:58;;;;;;;54.58;7.22;;;;;;;;;;4959513;28;20590;-81
2021/12/30 13:34:24;;;;;;;63.55;6.75;;;;;;;;;;4969010;28;20336;-81
2021/12/30 13:36:50;;;;;;;36.40;5.28;;;;;;;;;;4979181;28;20067;-81
2021/12/30 13:39:17;;;;;;;38.78;6.80;;;;;;;;;;4975226;28;20227;-81
2021/12/30 13:41:51;;;;;;;56.15;7.22;;;;;;;;;;4960437;28;20065;-81
2021/12/30 13:44:18;;;;;;;25.67;3.10;;;;;;;;;;4968359;28;20046;-81
2021/12/30 13:46:44;;;;;;;34.65;6.05;;;;;;;;;;4963419;28;20407;-82
2021/12/30 13:49:11;;;;;;;25.02;4.55;;;;;;;;;;4962568;28;21320;-82
2021/12/30 13:51:37;;;;;;;18.02;4.82;;;;;;;;;;4970035;28;20050;-82
2021/12/30 13:54:07;;;;;;;49.58;5.60;;;;;;;;;;4962669;28;20129;-82
2021/12/30 13:56:33;;;;;;;43.50;5.50;;;;;;;;;;4969732;28;20027;-82
2021/12/30 13:59:03;;;;;;;35.13;4.70;;;;;;;;;;4939652;28;20050;-82
2021/12/30 14:01:32;;;;;;;29.13;5.07;;;;;;;;;;4948954;28;20034;-82
2021/12/30 14:04:13;;;;;;;38.03;4.85;;;;;;;;;;4956393;28;20035;-82
2021/12/30 14:06:40;;;;;;;51.80;7.15;;;;;;;;;;4943079;28;20035;-82
2021/12/30 14:09:11;;;;;;;32.42;4.75;;;;;;;;;;4947153;28;20519;-82
2021/12/30 14:11:41;;;;;;;48.10;5.78;;;;;;;;;;4945097;28;20368;-81
2021/12/30 14:14:12;;;;;;;42.00;6.07;;;;;;;;;;4965438;28;20038;-81
2021/12/30 14:16:45;;;;;;;46.22;8.10;;;;;;;;;;4952404;28;20043;-82
2021/12/30 14:19:12;;;;;;;53.63;7.97;;;;;;;;;;4943281;28;20448;-82
2021/12/30 14:21:39;;;;;;;47.35;7.82;;;;;;;;;;4943285;28;20057;-82
2021/12/30 14:24:11;;;;;;;32.83;4.07;;;;;;;;;;4947649;28;20063;-82
2021/12/30 14:26:38;;;;;;;31.42;6.53;;;;;;;;;;4948911;28;20545;-81
2021/12/30 14:29:15;;;;;;;40.00;4.88;;;;;;;;;;4960569;28;20030;-82
2021/12/30 14:31:46;;;;;;;23.58;3.80;;;;;;;;;;4942200;28;20035;-82
2021/12/30 14:34:17;;;;;;;66.63;7.50;;;;;;;;;;4937086;28;20544;-82
2021/12/30 14:36:54;;;;;;;45.33;5.38;;;;;;;;;;4961971;28;20031;-82